메인 페이지
METAR-TAF:

METAR-TAF

공항 :

누메아 라 톤투타 국제공항, 뉴칼레도니아

위도: 22-01S, 경도: 166-13E, 고도: 16m

현재 날씨관측

예보는 31분 전, 17:00시(UTC)에 발표되었습니다.
북북동7kt풍과 동북동풍을 오가는
온도 22°C
습도 88%
기압 1011 hPa
시정 10km 이상

METAR: NWWW 171700Z AUTO 02007KT 350V060 9999 NCD 22/20 Q1011 TEMPO 4500 SHRA FEW020TCU

시각: 04:31 (17:31 UTC)

예보

예보는 6 시간 31분 전, 11:00시(UTC)에 발표되었습니다.
예보 대상 시간: 17일 12시부터 18일 12시까지 (UTC)
여러 방향의 바람 2kt
시정 10km 이상
고도 5000ft 상공 구름 조금
고도 7000ft 상공 구름 많음
확률 40% :
일시적
17일 12시부터 17일 18시까지 (UTC)
시정: 4500m
고도 2000ft 상공 구름 조금, 적란운.
소나기
확률 30% :
일시적
17일 18시부터 18일 02시까지 (UTC)
고도 2000ft 상공 구름 조금, 타워링 적운.
소나기
전환 중
17일 23시부터 18일 02시까지 (UTC)
남남서8kt
확률 40% :
일시적
18일 02시부터 18일 06시까지 (UTC)
고도 2000ft 상공 구름 조금, 적란운.
전환 중
18일 06시부터 18일 08시까지 (UTC)
여러 방향의 바람 2kt

TAF: NWWW 171100Z 1712/1812 VRB02KT 9999 FEW050 BKN070 PROB40 TEMPO 1712/1718 4500 SHRA FEW020CB PROB30 TEMPO 1718/1802 SHRA FEW020TCU BECMG 1723/1802 20008KT PROB40 TEMPO 1802/1806 FEW020CB BECMG 1806/1808 VRB02KT

4,000개 이상의 공항 관측 자료 및 예보 (METAR 및 TAF 보고).

지도상에서 검색 가능한 기상관측소가 노란 점과 빨간 점으로 표시되어 있습니다.

기상관측소 명을 보려면 표시 위로 마우스를 이동하세요.

날씨 관측과 예보를 보려면 클릭하세요.

지도 변경 : 확대하려면 엑스 표시가 있는 녹색 버튼, 축소하려면 빼기 표시가 있는 녹색 버튼, 다음 페이지의 지도를 보려면 녹색 화살표를 클릭하세요.


METAR-TAF: